LiveATC.Net - Listen to live air traffic control over the Internet! Contact for advertising information

ICAO: LBWN  IATA: VAR   Airport: Varna Airport
City: Varna
Country: Bulgaria   Continent: Europe
LBWN METAR Weather: LBWN 271000Z 35006KT 9999 FEW009 BKN017 07/05 Q1013 NOSIG
LBWN Flight Activity (FlightAware)
LBWN Tower/Approach
Feed Status: UP   Listeners: 2
Listen right in your browser - requires Flash (in browser, requires Flash)
Click here to listen with your own player (launches your MP3 player)
LBWN Tower/Approach Audio Archives
Varna Approach121.000
Varna Tower119.500


Unauthorized use prohibited. See Terms of Service

Find LiveATC Audio Streams

Airport/ARTCC Code

(e.g., 124.400, 128.75)
Site-wide search

Browse LiveATC Feeds
LiveATC Coverage Map
Top 50 LiveATC Feeds
Bad Weather Areas

Offer a LiveATC Feed
Press Inquiries

LiveATC on iPhone
LiveATC on Android

Windows Phone
Windows 8/10

LiveATC Mobile
(Mobile browser)

ATC Audio Archives
Interesting Recordings

LiveATC Forums

Home Page
Make a Donation
LiveATC Bookstore

Terms of Use
Privacy Policy

ATC/Radar Sites
U.S. ARTCC Freqs
Canadian Air Freqs


FAA Airport Status
Nat'l Airspace Status
Arrival Demand Charts

Server Software By:

Please make a donation to help us keep growing!